Time;durP1;ratioP1;P1;durP2;ratioP2;P2;SDS_P1;SDS_P2;PMS_P1;PMS_P2;Temp;Humidity;BMP_temperature;BMP_pressure;BME280_temperature;BME280_humidity;BME280_pressure;Samples;Min_cycle;Max_cycle;Signal;HPM_P1;HPM_P2
2021/04/05 00:00:36;;;;;;;7.93;2.10;;;17.10;52.20;;;;;;6214601;23;20343;-73
2021/04/05 00:03:02;;;;;;;10.07;2.85;;;17.00;52.10;;;;;;6215007;23;20079;-73
2021/04/05 00:05:30;;;;;;;5.13;2.00;;;17.00;52.10;;;;;;6214265;23;20039;-79
2021/04/05 00:07:56;;;;;;;5.57;2.20;;;17.00;52.20;;;;;;6215170;23;20004;-75
2021/04/05 00:10:45;;;;;;;5.80;2.33;;;17.00;52.70;;;;;;6214867;23;20008;-68
2021/04/05 00:13:14;;;;;;;6.45;2.17;;;17.00;52.20;;;;;;6214665;23;20019;-73
2021/04/05 00:15:40;;;;;;;7.45;2.42;;;16.90;52.10;;;;;;6214972;23;20072;-72
2021/04/05 00:18:06;;;;;;;6.07;2.55;;;16.90;52.10;;;;;;6214319;23;20401;-71
2021/04/05 00:20:39;;;;;;;6.97;2.22;;;16.90;52.20;;;;;;6214569;23;20007;-78
2021/04/05 00:23:06;;;;;;;6.88;2.55;;;16.90;52.20;;;;;;6214746;23;20445;-70
2021/04/05 00:25:33;;;;;;;7.88;2.45;;;16.80;52.10;;;;;;6214586;23;20495;-70
2021/04/05 00:28:01;;;;;;;6.95;2.67;;;16.80;52.20;;;;;;6214826;23;20008;-73
2021/04/05 00:30:32;;;;;;;6.00;2.10;;;16.80;52.10;;;;;;6214619;23;20384;-71
2021/04/05 00:32:58;;;;;;;6.80;2.55;;;16.80;52.10;;;;;;6214784;23;20095;-70
2021/04/05 00:35:27;;;;;;;6.93;2.42;;;16.80;52.10;;;;;;6214829;23;20016;-73
2021/04/05 00:37:54;;;;;;;5.22;1.77;;;16.80;52.10;;;;;;6214688;23;20016;-70
2021/04/05 00:40:27;;;;;;;6.35;2.05;;;16.80;52.10;;;;;;6215097;23;20027;-71
2021/04/05 00:42:53;;;;;;;8.48;2.80;;;16.80;52.00;;;;;;6214740;23;20140;-70
2021/04/05 00:45:19;;;;;;;6.35;2.00;;;16.70;52.00;;;;;;6215140;23;20104;-74
2021/04/05 00:47:48;;;;;;;7.45;2.38;;;16.80;52.00;;;;;;6215045;23;20441;-72
2021/04/05 00:50:17;;;;;;;6.80;2.53;;;16.70;52.00;;;;;;6215489;23;20043;-75
2021/04/05 00:52:44;;;;;;;5.95;2.58;;;16.70;52.00;;;;;;6214771;23;20007;-75
2021/04/05 00:55:11;;;;;;;10.75;2.72;;;16.70;52.00;;;;;;6214311;23;20013;-74
2021/04/05 00:57:37;;;;;;;5.97;2.13;;;16.70;52.00;;;;;;6186996;23;20024;-75
2021/04/05 01:00:20;;;;;;;5.80;2.25;;;16.60;51.90;;;;;;6214340;23;20461;-77
2021/04/05 01:02:46;;;;;;;6.40;2.28;;;16.60;52.00;;;;;;6214296;23;20067;-81
2021/04/05 01:05:13;;;;;;;6.65;2.75;;;16.60;52.50;;;;;;6214234;23;20004;-79
2021/04/05 01:07:39;;;;;;;6.22;2.20;;;16.60;52.00;;;;;;6214268;23;20005;-74
2021/04/05 01:10:10;;;;;;;10.13;2.65;;;16.60;52.00;;;;;;6213710;23;20016;-79
2021/04/05 01:12:37;;;;;;;7.80;2.30;;;16.50;51.90;;;;;;6213941;23;20011;-83
2021/04/05 01:15:06;;;;;;;7.53;2.72;;;16.60;52.00;;;;;;6214637;23;20001;-81
2021/04/05 01:17:32;;;;;;;7.75;2.72;;;16.50;51.90;;;;;;6214283;23;20024;-76
2021/04/05 01:19:58;;;;;;;7.45;2.83;;;16.50;51.90;;;;;;6214358;23;20004;-80
2021/04/05 01:22:23;;;;;;;5.22;2.10;;;16.50;51.90;;;;;;6214697;23;20012;-76
2021/04/05 01:24:50;;;;;;;8.40;2.78;;;16.50;52.00;;;;;;6214041;23;20429;-76
2021/04/05 01:27:16;;;;;;;6.55;2.55;;;16.40;51.90;;;;;;6187488;23;20016;-81
2021/04/05 01:29:42;;;;;;;6.72;2.53;;;16.40;51.90;;;;;;6213918;23;20000;-78
2021/04/05 01:32:08;;;;;;;7.88;3.10;;;16.40;51.90;;;;;;6214073;23;20004;-77
2021/04/05 01:34:38;;;;;;;7.90;2.53;;;16.40;51.90;;;;;;6214297;23;20090;-82
2021/04/05 01:37:04;;;;;;;6.82;2.60;;;16.40;51.90;;;;;;6214482;23;20021;-73
2021/04/05 01:39:34;;;;;;;7.07;2.50;;;16.40;51.90;;;;;;6214140;23;20460;-77
2021/04/05 01:42:00;;;;;;;8.07;3.03;;;16.40;52.00;;;;;;6187303;23;20092;-71
2021/04/05 01:44:25;;;;;;;6.50;2.63;;;16.40;52.00;;;;;;6214552;23;20386;-70
2021/04/05 01:46:51;;;;;;;9.60;3.30;;;16.30;52.00;;;;;;6214322;23;20445;-71
2021/04/05 01:49:18;;;;;;;5.97;2.83;;;16.30;51.90;;;;;;6214046;23;20079;-76
2021/04/05 01:51:43;;;;;;;7.40;2.70;;;16.30;51.90;;;;;;6213901;23;20436;-70
2021/04/05 01:54:09;;;;;;;7.57;2.95;;;16.30;51.80;;;;;;6213593;23;20094;-70
2021/04/05 01:56:35;;;;;;;5.82;2.10;;;16.30;51.90;;;;;;6213759;23;20011;-77
2021/04/05 01:59:00;;;;;;;7.43;2.80;;;16.30;51.90;;;;;;6213782;23;20318;-72
2021/04/05 02:01:30;;;;;;;11.07;3.20;;;16.30;51.90;;;;;;6214629;23;20346;-70
2021/04/05 02:03:57;;;;;;;5.22;2.42;;;16.20;51.90;;;;;;6214031;23;20341;-71
2021/04/05 02:06:27;;;;;;;5.95;2.50;;;16.20;51.80;;;;;;6214300;23;19997;-71
2021/04/05 02:08:53;;;;;;;6.78;2.58;;;16.20;52.40;;;;;;6187397;23;20009;-70
2021/04/05 02:11:23;;;;;;;8.05;3.00;;;16.20;51.90;;;;;;6213752;23;20126;-69
2021/04/05 02:13:53;;;;;;;12.95;3.40;;;16.20;51.90;;;;;;6213400;23;20015;-70
2021/04/05 02:16:20;;;;;;;7.95;2.63;;;16.20;51.80;;;;;;6213860;23;20004;-71
2021/04/05 02:18:51;;;;;;;8.32;2.72;;;16.20;51.90;;;;;;6187106;23;20016;-71
2021/04/05 02:21:20;;;;;;;8.82;3.40;;;16.20;51.90;;;;;;6213624;23;20000;-70
2021/04/05 02:23:47;;;;;;;11.02;3.10;;;16.20;52.50;;;;;;6213561;23;20004;-71
2021/04/05 02:26:17;;;;;;;5.20;2.28;;;16.20;51.90;;;;;;6213276;23;20036;-69
2021/04/05 02:28:45;;;;;;;7.13;2.72;;;16.10;51.90;;;;;;6213740;23;20008;-71
2021/04/05 02:31:14;;;;;;;7.88;2.35;;;16.10;51.90;;;;;;6213772;23;19997;-74
2021/04/05 02:33:42;;;;;;;6.97;2.50;;;16.10;51.90;;;;;;6213516;23;20001;-73
2021/04/05 02:36:11;;;;;;;7.10;2.42;;;16.10;51.90;;;;;;6213523;23;19997;-74
2021/04/05 02:38:38;;;;;;;7.47;2.53;;;16.10;51.90;;;;;;6213375;23;20013;-72
2021/04/05 02:41:04;;;;;;;7.32;2.60;;;16.10;51.80;;;;;;6213744;23;20011;-68
2021/04/05 02:43:31;;;;;;;9.43;2.47;;;16.10;51.90;;;;;;6186978;23;20004;-70
2021/04/05 02:45:57;;;;;;;5.97;2.40;;;16.10;51.80;;;;;;6214079;23;20028;-69
2021/04/05 02:48:24;;;;;;;6.63;2.55;;;16.10;51.80;;;;;;6213637;23;20015;-69
2021/04/05 02:50:50;;;;;;;7.07;2.88;;;16.10;51.80;;;;;;6213510;23;20005;-69
2021/04/05 02:53:16;;;;;;;7.80;2.92;;;16.00;51.80;;;;;;6213410;23;20094;-70
2021/04/05 02:55:42;;;;;;;6.70;3.00;;;16.00;51.90;;;;;;6213136;23;20055;-70
2021/04/05 02:58:08;;;;;;;6.22;2.50;;;16.00;51.90;;;;;;6213420;23;20445;-71
2021/04/05 03:00:36;;;;;;;7.35;2.50;;;16.00;51.90;;;;;;6213494;23;20007;-70
2021/04/05 03:03:02;;;;;;;10.05;2.80;;;16.00;51.90;;;;;;6213725;23;20349;-72
2021/04/05 03:05:28;;;;;;;7.32;2.97;;;16.00;51.90;;;;;;6213798;23;20001;-73
2021/04/05 03:07:55;;;;;;;8.32;2.90;;;15.90;51.90;;;;;;6213330;23;20005;-73
2021/04/05 03:10:26;;;;;;;9.63;2.38;;;16.00;52.00;;;;;;6213927;23;20859;-70
2021/04/05 03:12:55;;;;;;;9.77;2.97;;;15.90;52.00;;;;;;6186787;23;20380;-71
2021/04/05 03:15:23;;;;;;;7.05;2.28;;;15.90;52.00;;;;;;6213523;23;20012;-69
2021/04/05 03:17:53;;;;;;;9.52;3.08;;;16.00;52.10;;;;;;6213325;23;20016;-73
2021/04/05 03:20:21;;;;;;;9.93;2.92;;;15.90;52.00;;;;;;6213295;23;20006;-71
2021/04/05 03:22:48;;;;;;;8.07;2.83;;;15.90;52.00;;;;;;6187129;23;20440;-76
2021/04/05 03:25:21;;;;;;;10.60;3.72;;;15.90;52.00;;;;;;6213405;23;20005;-70
2021/04/05 03:27:48;;;;;;;9.68;3.10;;;15.90;52.00;;;;;;6213434;23;20004;-71
2021/04/05 03:30:36;;;;;;;7.63;2.70;;;15.90;52.10;;;;;;6213452;23;20011;-70
2021/04/05 03:33:16;;;;;;;7.63;2.70;;;15.90;52.10;;;;;;6213631;23;20437;-71
2021/04/05 03:35:45;;;;;;;9.57;2.40;;;15.90;52.10;;;;;;6188459;23;20051;-70
2021/04/05 03:38:12;;;;;;;5.80;2.42;;;15.90;52.10;;;;;;6215018;23;20031;-69
2021/04/05 03:40:42;;;;;;;7.57;2.70;;;15.90;52.10;;;;;;6215768;23;20370;-71
2021/04/05 03:43:36;;;;;;;6.15;2.58;;;15.90;52.20;;;;;;6215321;23;20062;-80
2021/04/05 03:46:25;;;;;;;8.43;3.20;;;15.90;52.20;;;;;;6214605;23;20008;-72
2021/04/05 03:49:06;;;;;;;7.85;2.60;;;15.90;52.20;;;;;;6215193;23;20107;-79
2021/04/05 03:51:37;;;;;;;7.38;2.72;;;15.90;52.20;;;;;;6215188;23;20005;-70
2021/04/05 03:54:08;;;;;;;7.80;2.78;;;15.90;52.20;;;;;;6215040;23;20544;-74
2021/04/05 03:56:46;;;;;;;7.22;2.22;;;15.90;52.20;;;;;;6215013;23;20079;-77
2021/04/05 03:59:21;;;;;;;7.28;2.22;;;15.90;52.30;;;;;;6188296;23;20350;-79
2021/04/05 04:01:52;;;;;;;8.88;2.58;;;15.90;52.30;;;;;;6188156;23;20004;-80
2021/04/05 04:04:27;;;;;;;6.28;2.50;;;15.90;52.30;;;;;;6215245;23;20036;-73
2021/04/05 04:09:36;;;;;;;7.05;2.50;;;15.90;52.40;;;;;;6215509;23;20043;-72
2021/04/05 04:12:02;;;;;;;7.32;2.55;;;15.90;52.40;;;;;;6215253;23;20019;-70
2021/04/05 04:14:29;;;;;;;7.75;2.75;;;15.80;52.30;;;;;;6215029;23;20001;-73
2021/04/05 04:16:56;;;;;;;9.18;2.33;;;15.90;52.40;;;;;;6214906;23;20091;-70
2021/04/05 04:19:22;;;;;;;7.38;2.53;;;15.80;52.40;;;;;;6214867;23;20008;-70
2021/04/05 04:21:48;;;;;;;4.22;2.20;;;15.90;52.50;;;;;;6214712;23;20005;-70
2021/04/05 04:24:15;;;;;;;7.10;2.47;;;15.80;52.40;;;;;;6214543;23;20127;-70
2021/04/05 04:26:42;;;;;;;8.65;2.55;;;15.80;52.40;;;;;;6214730;23;20011;-72
2021/04/05 04:29:14;;;;;;;6.97;2.25;;;15.80;52.50;;;;;;6214450;23;20452;-73
2021/04/05 04:31:40;;;;;;;9.73;2.72;;;15.80;52.50;;;;;;6214990;23;20426;-69
2021/04/05 04:34:06;;;;;;;7.35;2.42;;;15.80;52.50;;;;;;6214718;23;20001;-69
2021/04/05 04:36:32;;;;;;;13.20;2.72;;;15.80;52.60;;;;;;6214645;23;20422;-69
2021/04/05 04:38:58;;;;;;;5.15;2.22;;;15.80;52.60;;;;;;6214642;23;20000;-70
2021/04/05 04:41:25;;;;;;;8.95;3.13;;;15.80;52.60;;;;;;6214543;23;20009;-71
2021/04/05 04:43:59;;;;;;;7.65;2.40;;;15.80;52.70;;;;;;6214482;23;20001;-70
2021/04/05 04:46:25;;;;;;;7.47;2.70;;;15.80;52.70;;;;;;6214683;23;19997;-70
2021/04/05 04:49:04;;;;;;;9.13;3.03;;;15.80;52.70;;;;;;6214519;23;20011;-84
2021/04/05 04:51:31;;;;;;;9.57;2.83;;;15.80;52.70;;;;;;6214203;23;19997;-73
2021/04/05 04:53:59;;;;;;;7.95;2.60;;;15.80;52.80;;;;;;6187643;23;20013;-69
2021/04/05 04:56:25;;;;;;;9.63;3.22;;;15.70;52.80;;;;;;6214601;23;19997;-70
2021/04/05 04:58:51;;;;;;;10.10;3.13;;;15.80;52.90;;;;;;6214491;23;20326;-70
2021/04/05 05:01:18;;;;;;;6.78;2.80;;;15.80;52.80;;;;;;6213874;23;20004;-70
2021/04/05 05:03:56;;;;;;;7.40;3.20;;;15.70;52.80;;;;;;6214151;23;20008;-69
2021/04/05 05:06:24;;;;;;;8.65;3.00;;;15.70;52.80;;;;;;6214306;23;20001;-69
2021/04/05 05:08:50;;;;;;;9.07;2.88;;;15.70;52.80;;;;;;6214126;23;20001;-74
2021/04/05 05:11:16;;;;;;;9.05;3.00;;;15.80;52.90;;;;;;6214487;23;20000;-74
2021/04/05 05:13:42;;;;;;;6.28;2.72;;;15.70;52.90;;;;;;6186989;23;20011;-70
2021/04/05 05:16:09;;;;;;;9.10;2.42;;;15.70;52.90;;;;;;6214113;23;20027;-72
2021/04/05 05:18:36;;;;;;;6.15;2.55;;;15.70;53.00;;;;;;6214428;23;20508;-72
2021/04/05 05:21:08;;;;;;;7.07;2.42;;;15.70;52.90;;;;;;6214200;23;20001;-71
2021/04/05 05:23:36;;;;;;;10.25;2.90;;;15.70;53.00;;;;;;6214372;23;20087;-69
2021/04/05 05:26:03;;;;;;;7.45;2.75;;;15.70;53.00;;;;;;6214328;23;19997;-77
2021/04/05 05:28:33;;;;;;;9.85;2.97;;;15.70;53.00;;;;;;6214187;23;20054;-70
2021/04/05 05:30:59;;;;;;;7.78;2.65;;;15.70;53.00;;;;;;6214095;23;20012;-69
2021/04/05 05:33:25;;;;;;;8.75;2.78;;;15.70;53.10;;;;;;6214135;23;20068;-74
2021/04/05 05:35:52;;;;;;;7.80;3.20;;;15.70;53.10;;;;;;6213915;23;20036;-71
2021/04/05 05:38:21;;;;;;;5.45;2.38;;;15.70;53.10;;;;;;6214312;23;20013;-72
2021/04/05 05:40:48;;;;;;;7.53;2.63;;;15.70;53.20;;;;;;6187389;23;20004;-74
2021/04/05 05:43:20;;;;;;;7.40;2.45;;;15.70;53.20;;;;;;6214048;23;20437;-69
2021/04/05 05:46:09;;;;;;;8.02;2.75;;;15.70;53.20;;;;;;6213436;23;19997;-72
2021/04/05 05:49:00;;;;;;;9.23;2.58;;;15.70;53.20;;;;;;6214335;23;20386;-69
2021/04/05 05:51:39;;;;;;;7.80;2.50;;;15.70;53.30;;;;;;6214034;23;20441;-69
2021/04/05 05:54:26;;;;;;;7.55;3.30;;;15.70;53.30;;;;;;6212715;23;20040;-74
2021/04/05 05:56:56;;;;;;;9.65;3.13;;;15.70;53.30;;;;;;6213665;23;20019;-78
2021/04/05 05:59:51;;;;;;;8.80;3.10;;;15.70;53.30;;;;;;6213730;23;20008;-77
2021/04/05 06:02:38;;;;;;;8.13;3.05;;;15.70;53.30;;;;;;6187071;23;20008;-73
2021/04/05 06:05:16;;;;;;;7.00;2.90;;;15.70;53.30;;;;;;6213711;23;20058;-71
2021/04/05 06:07:54;;;;;;;9.25;3.10;;;15.70;53.40;;;;;;6214043;23;20378;-70
2021/04/05 06:10:48;;;;;;;7.95;3.10;;;15.70;53.40;;;;;;6213789;23;19996;-74
2021/04/05 06:13:31;;;;;;;7.50;3.67;;;15.70;53.40;;;;;;6213322;23;20148;-77
2021/04/05 06:16:21;;;;;;;7.43;2.90;;;15.70;53.40;;;;;;6213742;23;20071;-75
2021/04/05 06:18:59;;;;;;;7.72;3.13;;;15.70;53.40;;;;;;6187163;23;20015;-73
2021/04/05 06:21:50;;;;;;;6.07;2.75;;;15.70;53.50;;;;;;6213701;23;20115;-74
2021/04/05 06:24:39;;;;;;;7.07;2.72;;;15.70;53.50;;;;;;6213852;23;20004;-75
2021/04/05 06:27:55;;;;;;;7.50;3.00;;;15.70;53.50;;;;;;6213727;23;20000;-79
2021/04/05 06:30:48;;;;;;;9.15;3.17;;;15.70;53.50;;;;;;6213915;23;20008;-77
2021/04/05 06:33:31;;;;;;;8.45;3.00;;;15.60;53.50;;;;;;6213681;23;20028;-82
2021/04/05 06:36:10;;;;;;;8.68;3.25;;;15.70;53.60;;;;;;6213747;23;20009;-76
2021/04/05 06:38:45;;;;;;;6.80;2.80;;;15.60;53.60;;;;;;6213543;23;20445;-86
2021/04/05 06:41:33;;;;;;;7.95;2.92;;;15.70;53.60;;;;;;6214229;23;20031;-82
2021/04/05 06:44:25;;;;;;;9.18;3.03;;;15.60;53.60;;;;;;6213465;23;20059;-69
2021/04/05 06:47:24;;;;;;;6.43;3.08;;;15.70;53.70;;;;;;6213327;23;20076;-69
2021/04/05 06:50:17;;;;;;;8.73;2.95;;;15.60;53.70;;;;;;6212610;23;20081;-70
2021/04/05 06:53:15;;;;;;;7.80;2.97;;;15.60;53.70;;;;;;6213462;23;20008;-69
2021/04/05 06:55:57;;;;;;;7.63;3.50;;;15.60;53.70;;;;;;6213541;23;20005;-74
2021/04/05 06:58:26;;;;;;;9.02;3.35;;;15.70;53.80;;;;;;6212404;23;20012;-69
2021/04/05 07:01:15;;;;;;;11.88;3.30;;;15.70;53.90;;;;;;6212469;23;19997;-69
2021/04/05 07:04:14;;;;;;;18.08;4.40;;;15.70;54.10;;;;;;6186541;23;20393;-70
2021/04/05 07:06:57;;;;;;;7.53;3.30;;;15.80;54.50;;;;;;6213405;23;20000;-70
2021/04/05 07:09:25;;;;;;;8.73;3.60;;;15.90;54.20;;;;;;6215004;23;20016;-70
2021/04/05 07:11:54;;;;;;;9.35;3.33;;;15.90;54.40;;;;;;6214759;23;20032;-69
2021/04/05 07:14:42;;;;;;;5.40;3.45;;;15.90;54.60;;;;;;6215411;23;20028;-70
2021/04/05 07:17:32;;;;;;;9.00;3.58;;;16.00;54.70;;;;;;6188279;23;20457;-70
2021/04/05 07:20:02;;;;;;;7.97;3.05;;;16.10;54.80;;;;;;6215182;23;20003;-70
2021/04/05 07:22:50;;;;;;;8.15;2.97;;;16.10;54.90;;;;;;6188877;23;20015;-72
2021/04/05 07:25:36;;;;;;;5.35;2.55;;;16.10;54.80;;;;;;6215377;23;20079;-72
2021/04/05 07:28:13;;;;;;;7.68;3.60;;;16.20;54.90;;;;;;6215036;23;20369;-72
2021/04/05 07:30:41;;;;;;;8.55;3.15;;;16.30;55.00;;;;;;6188391;23;20389;-70
2021/04/05 07:33:38;;;;;;;9.90;3.83;;;16.30;54.70;;;;;;6214879;23;20074;-70
2021/04/05 07:36:22;;;;;;;7.68;2.83;;;16.40;54.60;;;;;;6215241;23;20008;-70
2021/04/05 07:39:09;;;;;;;5.50;2.47;;;16.40;54.70;;;;;;6215024;23;20084;-71
2021/04/05 07:42:00;;;;;;;5.57;2.80;;;16.50;55.00;;;;;;6214897;23;20026;-75
2021/04/05 07:44:29;;;;;;;6.32;2.67;;;16.60;54.90;;;;;;6215402;23;20058;-72
2021/04/05 07:47:03;;;;;;;5.57;3.00;;;16.60;54.80;;;;;;6214797;23;19996;-72
2021/04/05 07:49:36;;;;;;;6.38;3.03;;;16.70;54.80;;;;;;6214757;23;20524;-71
2021/04/05 07:52:10;;;;;;;6.85;3.25;;;16.80;54.70;;;;;;6215008;23;20336;-71
2021/04/05 07:54:40;;;;;;;7.80;4.28;;;16.90;54.60;;;;;;6214644;23;20381;-74
2021/04/05 07:57:22;;;;;;;9.35;3.72;;;17.00;54.60;;;;;;6214630;23;20345;-70
2021/04/05 08:00:03;;;;;;;7.53;3.05;;;17.00;54.40;;;;;;6214594;23;20072;-71
2021/04/05 08:02:42;;;;;;;9.38;3.28;;;17.10;54.70;;;;;;6214732;23;20019;-71
2021/04/05 08:05:27;;;;;;;9.95;3.42;;;17.20;54.10;;;;;;6214823;23;20004;-73
2021/04/05 08:07:52;;;;;;;7.97;3.17;;;17.20;54.30;;;;;;6187689;23;20005;-74
2021/04/05 08:10:42;;;;;;;5.97;2.47;;;17.30;54.10;;;;;;6214790;23;20080;-72
2021/04/05 08:13:17;;;;;;;8.32;2.53;;;17.30;54.30;;;;;;6214541;23;20067;-75
2021/04/05 08:16:03;;;;;;;5.78;2.75;;;17.50;54.10;;;;;;6215326;23;20119;-70
2021/04/05 08:18:42;;;;;;;6.50;2.35;;;17.60;54.30;;;;;;6214683;23;20014;-80
2021/04/05 08:21:19;;;;;;;7.28;2.50;;;17.70;54.30;;;;;;6187691;23;20350;-77
2021/04/05 08:24:09;;;;;;;5.25;2.08;;;17.70;54.40;;;;;;6215299;23;20032;-74
2021/04/05 08:26:37;;;;;;;5.13;2.17;;;17.70;54.00;;;;;;6214637;23;20051;-79
2021/04/05 08:29:05;;;;;;;6.70;2.55;;;17.80;53.90;;;;;;6214877;23;20005;-80
2021/04/05 08:31:36;;;;;;;7.97;2.38;;;;;;;;;;6214639;23;20489;-79
2021/04/05 08:34:37;;;;;;;5.63;2.50;;;17.50;93.50;;;;;;6214699;23;20027;-75
2021/04/05 08:37:17;;;;;;;5.47;2.30;;;17.50;90.60;;;;;;6205942;23;20036;-77
2021/04/05 08:39:43;;;;;;;8.90;1.90;;;17.60;74.50;;;;;;6214652;23;20314;-77
2021/04/05 08:42:15;;;;;;;5.10;2.53;;;17.90;62.90;;;;;;6214701;23;20007;-79
2021/04/05 08:45:11;;;;;;;7.35;2.95;;;18.00;58.50;;;;;;6214735;23;20011;-80
2021/04/05 08:47:41;;;;;;;7.72;2.60;;;18.20;57.00;;;;;;6214398;23;20005;-79
2021/04/05 08:50:11;;;;;;;6.07;2.85;;;18.30;55.50;;;;;;6216355;23;20005;-80
2021/04/05 08:52:43;;;;;;;7.47;3.00;;;18.40;54.40;;;;;;6214789;23;20005;-82
2021/04/05 08:55:14;;;;;;;6.63;2.97;;;18.60;54.10;;;;;;6187765;23;20634;-79
2021/04/05 08:58:18;;;;;;;8.85;2.42;;;18.60;53.80;;;;;;6214529;23;20393;-81
2021/04/05 09:00:49;;;;;;;7.03;2.60;;;18.70;53.80;;;;;;6213468;23;20088;-83
2021/04/05 09:03:21;;;;;;;10.07;2.80;;;18.80;53.90;;;;;;6214273;23;20004;-83
2021/04/05 09:05:49;;;;;;;7.40;2.58;;;18.80;53.80;;;;;;6188172;23;20008;-80
2021/04/05 09:08:18;;;;;;;7.93;2.35;;;18.90;54.10;;;;;;6214159;23;20024;-80
2021/04/05 09:11:02;;;;;;;6.53;2.80;;;18.90;53.60;;;;;;6214375;23;20008;-80
2021/04/05 09:13:28;;;;;;;6.57;2.40;;;18.90;53.20;;;;;;6214405;23;20008;-80
2021/04/05 09:16:13;;;;;;;4.65;2.00;;;19.00;53.00;;;;;;6213862;23;20001;-76
2021/04/05 09:19:16;;;;;;;6.40;2.60;;;19.00;52.80;;;;;;6213922;23;20017;-75
2021/04/05 09:22:07;;;;;;;6.60;2.08;;;19.10;53.00;;;;;;6213940;23;20463;-74
2021/04/05 09:25:03;;;;;;;5.45;1.98;;;19.10;52.40;;;;;;6213782;23;20032;-76
2021/04/05 09:27:48;;;;;;;6.20;1.85;;;19.20;52.60;;;;;;6214182;23;20509;-73
2021/04/05 09:30:34;;;;;;;8.20;2.28;;;19.30;52.20;;;;;;6213742;23;20342;-76
2021/04/05 09:33:25;;;;;;;7.40;2.03;;;19.40;52.10;;;;;;6213662;23;20441;-75
2021/04/05 09:36:01;;;;;;;10.85;2.10;;;19.50;51.90;;;;;;6187784;23;20334;-75
2021/04/05 09:38:58;;;;;;;9.18;2.17;;;19.60;51.90;;;;;;6213754;23;20023;-74
2021/04/05 09:41:54;;;;;;;6.25;1.88;;;19.70;51.70;;;;;;6187035;23;20174;-75
2021/04/05 09:44:57;;;;;;;9.15;2.00;;;19.80;51.30;;;;;;6214326;23;20027;-74
2021/04/05 09:47:28;;;;;;;4.78;1.95;;;19.90;51.10;;;;;;6214041;23;20001;-74
2021/04/05 09:50:13;;;;;;;9.75;1.73;;;19.90;51.00;;;;;;6186965;23;20008;-75
2021/04/05 09:53:16;;;;;;;6.40;2.03;;;19.90;51.40;;;;;;6213879;23;20011;-76
2021/04/05 09:55:49;;;;;;;11.88;2.95;;;19.90;50.70;;;;;;6186949;23;20011;-73
2021/04/05 09:58:22;;;;;;;9.23;1.88;;;19.90;50.90;;;;;;6213333;23;20040;-74
2021/04/05 10:00:51;;;;;;;8.48;2.22;;;19.90;50.90;;;;;;6187395;23;20050;-74
2021/04/05 10:03:19;;;;;;;7.22;1.77;;;19.90;51.10;;;;;;6212721;23;20001;-75
2021/04/05 10:05:47;;;;;;;6.45;2.15;;;20.00;50.50;;;;;;6186751;23;20004;-73
2021/04/05 10:08:23;;;;;;;6.78;2.15;;;20.10;50.30;;;;;;6212608;23;20004;-73
2021/04/05 10:10:50;;;;;;;6.30;1.92;;;20.20;50.00;;;;;;6213527;23;20382;-75
2021/04/05 10:13:19;;;;;;;7.63;1.92;;;20.30;49.70;;;;;;6187074;23;20314;-75
2021/04/05 10:15:49;;;;;;;5.18;1.70;;;20.30;49.50;;;;;;6213656;23;20348;-75
2021/04/05 10:18:16;;;;;;;6.57;1.50;;;20.40;49.40;;;;;;6213346;23;20508;-77
2021/04/05 10:20:47;;;;;;;6.03;2.20;;;20.30;49.50;;;;;;6213410;23;20438;-75
2021/04/05 10:23:18;;;;;;;7.85;1.80;;;20.30;49.50;;;;;;6186660;23;20100;-72
2021/04/05 10:25:45;;;;;;;6.47;1.70;;;20.30;49.70;;;;;;6213195;23;20015;-75
2021/04/05 10:28:14;;;;;;;6.20;2.05;;;20.30;49.50;;;;;;6186847;23;20004;-76
2021/04/05 10:30:41;;;;;;;5.55;1.90;;;20.40;49.60;;;;;;6214017;23;20005;-75
2021/04/05 10:33:15;;;;;;;5.82;1.80;;;20.40;49.60;;;;;;6213609;23;20449;-75
2021/04/05 10:35:47;;;;;;;6.65;1.65;;;20.40;49.80;;;;;;6212928;23;20039;-74
2021/04/05 10:38:16;;;;;;;5.60;1.73;;;20.40;49.70;;;;;;6213324;23;20092;-75
2021/04/05 10:40:42;;;;;;;10.95;2.08;;;20.40;50.10;;;;;;6212408;23;20438;-72
2021/04/05 10:43:36;;;;;;;6.55;1.85;;;20.40;50.10;;;;;;6215696;23;20051;-72
2021/04/05 10:46:09;;;;;;;4.50;1.48;;;20.50;49.90;;;;;;6216530;23;20001;-74
2021/04/05 10:48:49;;;;;;;7.18;1.50;;;20.60;49.60;;;;;;6216925;23;20380;-73
2021/04/05 10:51:20;;;;;;;9.13;2.03;;;20.70;49.30;;;;;;6216748;23;20449;-76
2021/04/05 10:53:51;;;;;;;6.47;1.88;;;20.80;49.10;;;;;;6216639;23;20005;-76
2021/04/05 10:56:19;;;;;;;6.85;1.83;;;20.80;48.80;;;;;;6216690;23;20015;-75
2021/04/05 10:58:52;;;;;;;7.68;1.77;;;20.90;48.70;;;;;;6216825;23;20020;-74
2021/04/05 11:01:19;;;;;;;6.28;1.58;;;20.90;48.60;;;;;;6216743;23;20004;-73
2021/04/05 11:03:50;;;;;;;5.88;1.83;;;21.00;48.40;;;;;;6216751;23;20072;-72
2021/04/05 11:06:18;;;;;;;7.30;2.20;;;21.00;48.20;;;;;;6215951;23;20031;-74
2021/04/05 11:08:48;;;;;;;6.63;1.98;;;21.10;48.30;;;;;;6216146;23;20008;-78
2021/04/05 11:11:20;;;;;;;10.45;2.15;;;21.00;48.10;;;;;;6215691;23;20015;-73
2021/04/05 11:13:53;;;;;;;6.70;1.52;;;21.20;48.40;;;;;;6216839;23;20075;-72
2021/04/05 11:16:22;;;;;;;7.43;1.70;;;21.20;47.90;;;;;;6216779;23;20000;-74
2021/04/05 11:18:51;;;;;;;7.80;1.77;;;21.10;48.20;;;;;;6205841;23;20346;-72
2021/04/05 11:21:23;;;;;;;5.90;1.80;;;21.20;48.10;;;;;;6214431;23;20437;-74
2021/04/05 11:23:53;;;;;;;5.32;1.52;;;21.10;47.90;;;;;;6214922;23;20000;-75
2021/04/05 11:26:27;;;;;;;7.72;1.65;;;21.20;47.90;;;;;;6215085;23;20023;-73
2021/04/05 11:28:57;;;;;;;5.72;1.70;;;21.30;47.70;;;;;;6215683;23;20720;-75
2021/04/05 11:31:24;;;;;;;5.85;1.80;;;21.50;47.50;;;;;;6189422;23;20319;-74
2021/04/05 11:33:59;;;;;;;8.18;2.03;;;21.60;47.30;;;;;;6215244;23;20009;-74
2021/04/05 11:36:35;;;;;;;7.93;2.43;;;21.60;47.30;;;;;;6215952;23;20046;-74
2021/04/05 11:39:00;;;;;;;;;;;21.50;47.50;;;;;;6216050;23;20013;-78
2021/04/05 11:41:28;;;;;;;6.30;1.92;;;21.40;47.70;;;;;;6215989;23;20240;-77
2021/04/05 11:43:57;;;;;;;11.80;2.22;;;21.30;47.80;;;;;;6215778;23;20535;-77
2021/04/05 11:46:32;;;;;;;8.90;2.05;;;21.20;47.90;;;;;;6216163;23;20009;-78
2021/04/05 11:49:10;;;;;;;9.07;2.45;;;21.40;47.80;;;;;;6215728;23;20032;-73
2021/04/05 11:51:54;;;;;;;8.23;2.00;;;21.60;47.40;;;;;;6215165;23;20062;-79
2021/04/05 11:54:37;;;;;;;9.05;2.38;;;21.70;47.30;;;;;;6213850;23;20055;-77
2021/04/05 11:57:08;;;;;;;8.80;2.17;;;21.60;47.30;;;;;;6213082;23;20046;-72
2021/04/05 11:59:37;;;;;;;8.32;2.30;;;21.40;47.40;;;;;;6212552;23;20065;-73
2021/04/05 12:02:15;;;;;;;9.13;2.25;;;21.50;47.50;;;;;;6212531;23;20008;-71
2021/04/05 12:04:48;;;;;;;6.60;2.08;;;21.80;47.10;;;;;;6212387;23;20016;-74
2021/04/05 12:07:19;;;;;;;11.52;2.13;;;21.80;47.30;;;;;;6212804;23;20009;-75
2021/04/05 12:10:05;;;;;;;7.20;1.98;;;21.80;46.60;;;;;;6212789;23;20468;-73
2021/04/05 12:12:40;;;;;;;;;;;21.80;46.60;;;;;;6213127;23;20008;-71
2021/04/05 12:15:10;;;;;;;9.75;2.53;;;22.00;46.10;;;;;;6212644;23;20388;-71
2021/04/05 12:17:36;;;;;;;7.40;2.10;;;22.00;45.90;;;;;;6212374;23;20055;-73
2021/04/05 12:20:04;;;;;;;5.95;1.80;;;21.90;45.90;;;;;;6212373;23;20076;-74
2021/04/05 12:22:33;;;;;;;8.55;1.98;;;21.80;46.10;;;;;;6212609;23;20039;-75
2021/04/05 12:25:02;;;;;;;7.82;2.28;;;21.70;46.30;;;;;;6212571;23;20449;-73
2021/04/05 12:27:40;;;;;;;7.47;2.10;;;21.60;46.40;;;;;;6212573;23;20062;-72
2021/04/05 12:30:11;;;;;;;6.18;2.35;;;21.60;46.30;;;;;;6212417;23;20008;-73
2021/04/05 12:32:38;;;;;;;8.07;2.30;;;21.60;46.20;;;;;;6212716;23;20011;-71
2021/04/05 12:35:07;;;;;;;5.63;1.65;;;21.50;46.20;;;;;;6185955;23;20044;-72
2021/04/05 12:37:33;;;;;;;4.93;1.80;;;21.60;45.90;;;;;;6186088;23;20052;-72
2021/04/05 12:40:01;;;;;;;6.05;1.67;;;21.60;45.80;;;;;;6212245;23;20063;-72
2021/04/05 12:42:29;;;;;;;8.77;2.50;;;21.60;45.70;;;;;;6213745;23;20463;-73
2021/04/05 12:44:58;;;;;;;5.68;1.80;;;21.60;45.70;;;;;;6213162;23;20005;-72
2021/04/05 12:47:35;;;;;;;6.47;1.95;;;21.60;45.70;;;;;;6212495;23;20043;-73
2021/04/05 12:50:14;;;;;;;6.68;1.90;;;21.60;45.70;;;;;;6212336;23;20004;-72
2021/04/05 12:52:42;;;;;;;5.15;1.92;;;21.40;45.80;;;;;;6212526;23;20665;-73
2021/04/05 12:55:11;;;;;;;6.30;1.95;;;21.10;46.10;;;;;;6212102;23;20391;-72
2021/04/05 12:57:37;;;;;;;9.10;2.08;;;21.00;46.20;;;;;;6212466;23;20460;-74
2021/04/05 13:00:20;;;;;;;5.70;2.08;;;21.00;46.20;;;;;;6212402;23;20009;-72
2021/04/05 13:02:55;;;;;;;4.32;1.60;;;21.60;45.70;;;;;;6208216;23;20042;-72
2021/04/05 13:05:39;;;;;;;5.55;1.63;;;21.70;44.80;;;;;;6213409;23;20000;-76
2021/04/05 13:08:39;;;;;;;7.18;1.98;;;21.60;45.00;;;;;;6186402;23;20008;-75
2021/04/05 13:11:13;;;;;;;5.65;1.65;;;21.50;44.90;;;;;;6213275;23;20437;-72
2021/04/05 13:13:52;;;;;;;5.72;1.42;;;21.50;45.20;;;;;;6185683;23;20012;-73
2021/04/05 13:16:25;;;;;;;4.30;1.55;;;21.50;44.80;;;;;;6212213;23;20692;-73
2021/04/05 13:18:53;;;;;;;5.47;1.58;;;21.30;44.90;;;;;;6212113;23;20009;-75
2021/04/05 13:21:20;;;;;;;4.57;1.67;;;21.10;45.20;;;;;;6212357;23;20437;-73
2021/04/05 13:23:51;;;;;;;6.57;1.45;;;20.90;45.30;;;;;;6211939;23;20004;-75